Time;durP1;ratioP1;P1;durP2;ratioP2;P2;SDS_P1;SDS_P2;PMS_P1;PMS_P2;Temp;Humidity;BMP_temperature;BMP_pressure;BME280_temperature;BME280_humidity;BME280_pressure;Samples;Min_cycle;Max_cycle;Signal;HPM_P1;HPM_P2
2022/12/16 00:01:16;;;;;;;88.18;45.05;;;;;;;3.38;98.22;99492.22;5011237;28;20496;-67
2022/12/16 00:03:47;;;;;;;90.45;48.38;;;;;;;3.46;98.56;99488.81;5011295;28;20037;-67
2022/12/16 00:06:13;;;;;;;88.68;46.40;;;;;;;3.71;97.75;99477.88;5008486;28;20040;-67
2022/12/16 00:08:39;;;;;;;82.70;46.53;;;;;;;3.68;95.38;99472.88;5009313;28;20113;-67
2022/12/16 00:11:05;;;;;;;81.82;44.47;;;;;;;3.68;93.69;99482.03;5008816;28;20093;-67
2022/12/16 00:13:32;;;;;;;91.88;50.58;;;;;;;3.69;92.96;99483.69;5009635;28;20032;-67
2022/12/16 00:19:19;;;;;;;101.63;50.78;;;;;;;3.83;93.94;99485.78;5221539;22;20430;-86
2022/12/16 00:21:45;;;;;;;113.65;52.65;;;;;;;3.67;94.03;99483.16;5027392;28;20033;-86
2022/12/16 00:24:13;;;;;;;110.70;53.65;;;;;;;3.78;94.56;99484.72;5026142;28;20030;-85
2022/12/16 00:26:39;;;;;;;105.25;52.75;;;;;;;3.79;95.36;99469.75;5026730;28;20030;-85
2022/12/16 00:29:04;;;;;;;151.63;51.78;;;;;;;3.81;94.57;99479.72;5034180;28;20059;-86
2022/12/16 00:31:30;;;;;;;149.30;57.63;;;;;;;3.49;95.55;99484.66;5040977;28;20053;-85
2022/12/16 00:33:56;;;;;;;122.18;56.35;;;;;;;3.44;96.08;99485.53;5033311;28;20360;-85
2022/12/16 00:36:22;;;;;;;135.70;60.88;;;;;;;3.26;98.54;99506.38;5032481;28;20094;-85
2022/12/16 00:38:48;;;;;;;137.05;59.92;;;;;;;3.33;99.07;99501.38;5049885;28;20017;-84
2022/12/16 00:41:13;;;;;;;150.68;62.15;;;;;;;3.40;98.90;99475.31;5032978;28;20021;-84
2022/12/16 00:43:38;;;;;;;125.88;58.03;;;;;;;3.39;99.21;99477.28;5034428;28;20495;-85
2022/12/16 00:46:04;;;;;;;121.03;54.13;;;;;;;3.43;98.91;99461.75;5048130;28;20585;-85
2022/12/16 00:48:30;;;;;;;98.82;47.83;;;;;;;3.30;98.00;99462.41;5018151;28;20040;-86
2022/12/16 00:50:55;;;;;;;98.75;47.97;;;;;;;3.11;99.01;99490.69;5032380;28;20415;-86
2022/12/16 00:53:22;;;;;;;85.47;44.83;;;;;;;3.27;99.25;99479.56;5032395;28;20033;-86
2022/12/16 00:55:48;;;;;;;81.47;44.95;;;;;;;3.53;98.65;99476.63;5036675;28;20036;-87
2022/12/16 00:58:14;;;;;;;89.22;50.50;;;;;;;3.49;98.49;99466.13;5029677;28;20459;-87
2022/12/16 01:00:40;;;;;;;74.68;43.70;;;;;;;3.34;97.16;99480.06;5013180;28;20113;-86
2022/12/16 01:03:05;;;;;;;75.28;43.92;;;;;;;2.79;97.28;99467.91;5019557;28;20057;-87
2022/12/16 01:05:31;;;;;;;84.32;45.13;;;;;;;2.57;100.00;99503.34;5032710;28;20055;-86
2022/12/16 01:07:57;;;;;;;107.93;50.53;;;;;;;2.64;100.00;99512.97;5032427;28;20021;-87
2022/12/16 01:10:24;;;;;;;109.28;46.97;;;;;;;2.66;100.00;99510.78;5032132;28;20023;-86
2022/12/16 01:12:50;;;;;;;106.50;41.60;;;;;;;2.49;100.00;99518.56;5032731;28;20033;-87
2022/12/16 01:15:16;;;;;;;116.43;44.40;;;;;;;2.50;100.00;99509.16;5032671;28;20419;-85
2022/12/16 01:17:42;;;;;;;92.05;42.28;;;;;;;2.80;100.00;99490.84;5032310;28;20033;-85
2022/12/16 01:20:09;;;;;;;105.72;41.75;;;;;;;3.00;100.00;99503.75;5018078;28;20057;-85
2022/12/16 01:22:35;;;;;;;79.90;40.42;;;;;;;2.93;100.00;99493.00;5014062;28;20491;-86
2022/12/16 01:25:01;;;;;;;79.85;42.50;;;;;;;3.25;100.00;99507.47;5013750;28;20026;-86
2022/12/16 01:27:28;;;;;;;66.80;38.63;;;;;;;3.30;100.00;99501.09;5013760;28;20029;-87
2022/12/16 01:29:54;;;;;;;66.53;41.25;;;;;;;3.17;100.00;99502.53;5012545;28;20483;-85
2022/12/16 01:32:20;;;;;;;65.07;40.60;;;;;;;3.45;100.00;99498.22;5013782;28;20030;-86
2022/12/16 01:34:50;;;;;;;62.47;37.25;;;;;;;3.58;100.00;99502.31;5013214;28;20511;-86
2022/12/16 01:37:15;;;;;;;64.10;36.95;;;;;;;3.71;99.97;99492.50;5011649;28;20073;-86
2022/12/16 01:39:41;;;;;;;66.10;39.47;;;;;;;3.72;98.53;99469.25;5013375;28;20061;-86
2022/12/16 01:42:11;;;;;;;62.33;38.90;;;;;;;3.88;98.12;99478.25;5012343;28;20480;-85
2022/12/16 01:44:37;;;;;;;71.10;39.00;;;;;;;3.97;97.84;99486.75;5012699;28;20468;-87
2022/12/16 01:47:04;;;;;;;63.13;40.22;;;;;;;4.03;97.09;99485.59;5012211;28;20060;-87
2022/12/16 01:49:30;;;;;;;75.30;41.80;;;;;;;4.14;96.22;99482.75;5013281;28;20057;-85
2022/12/16 01:52:00;;;;;;;89.10;53.28;;;;;;;4.07;95.06;99474.78;5012043;28;20121;-86
2022/12/16 01:54:36;;;;;;;85.78;47.72;;;;;;;4.02;95.30;99461.81;5011918;28;20037;-85
2022/12/16 01:57:08;;;;;;;101.15;55.45;;;;;;;3.90;95.20;99455.84;5013410;28;20488;-86
2022/12/16 01:59:38;;;;;;;87.43;50.08;;;;;;;4.00;95.55;99466.81;5013247;28;20586;-86
2022/12/16 02:02:04;;;;;;;83.80;47.05;;;;;;;3.96;95.30;99468.50;5012979;28;20038;-86
2022/12/16 02:04:29;;;;;;;96.80;53.08;;;;;;;3.93;95.12;99469.09;5011857;28;20034;-85
2022/12/16 02:06:55;;;;;;;118.07;64.25;;;;;;;3.75;95.11;99457.63;5011876;28;20104;-85
2022/12/16 02:09:21;;;;;;;99.68;55.20;;;;;;;3.93;94.15;99472.69;5011517;28;20488;-87
2022/12/16 02:12:08;;;;;;;82.05;45.00;;;;;;;3.83;94.02;99471.94;5011025;28;20030;-85
2022/12/16 02:14:49;;;;;;;76.53;43.10;;;;;;;3.85;93.34;99456.72;5011651;28;20034;-86
2022/12/16 02:17:42;;;;;;;70.07;40.55;;;;;;;3.90;93.62;99442.81;5011510;28;20077;-86
2022/12/16 02:20:29;;;;;;;81.60;44.88;;;;;;;3.46;93.53;99452.88;5011425;28;20423;-85
2022/12/16 02:23:22;;;;;;;77.40;44.38;;;;;;;3.03;97.79;99461.72;5011292;28;20033;-85
2022/12/16 02:26:15;;;;;;;101.75;50.58;;;;;;;2.77;100.00;99447.19;5007881;28;20026;-86
2022/12/16 02:29:16;;;;;;;99.60;51.65;;;;;;;2.73;100.00;99443.34;4991768;28;20080;-85
2022/12/16 02:31:47;;;;;;;98.97;50.70;;;;;;;2.96;100.00;99450.16;4997362;28;20064;-86
2022/12/16 02:34:16;;;;;;;98.32;52.88;;;;;;;2.97;100.00;99450.97;5011274;28;20411;-87
2022/12/16 02:36:53;;;;;;;103.40;54.35;;;;;;;3.10;100.00;99442.06;5010827;28;20062;-85
2022/12/16 02:39:46;;;;;;;106.55;54.45;;;;;;;3.04;100.00;99448.72;5011281;28;20081;-85
2022/12/16 02:42:30;;;;;;;112.32;55.50;;;;;;;3.07;100.00;99442.63;5010384;28;20555;-86
2022/12/16 02:45:04;;;;;;;112.97;53.63;;;;;;;3.34;100.00;99453.25;5011217;28;20104;-85
2022/12/16 02:47:31;;;;;;;94.45;52.33;;;;;;;3.47;100.00;99451.75;5011097;28;20120;-87
2022/12/16 02:49:57;;;;;;;120.80;60.92;;;;;;;3.61;100.00;99462.16;5010781;28;20659;-86
2022/12/16 02:52:33;;;;;;;130.77;64.13;;;;;;;3.62;99.48;99453.56;5010981;28;20137;-86
2022/12/16 02:55:03;;;;;;;106.95;51.03;;;;;;;3.60;98.42;99450.28;5011034;28;20030;-85
2022/12/16 02:57:50;;;;;;;101.88;49.72;;;;;;;3.32;97.34;99460.16;5010584;28;20092;-85
2022/12/16 03:00:20;;;;;;;133.98;67.72;;;;;;;3.22;97.99;99461.88;5010667;28;20034;-86
2022/12/16 03:03:11;;;;;;;120.15;64.22;;;;;;;3.41;97.43;99474.19;5010757;28;20045;-87
2022/12/16 03:05:47;;;;;;;142.63;60.13;;;;;;;3.40;96.85;99469.78;5010459;28;20083;-86
2022/12/16 03:08:19;;;;;;;141.73;65.72;;;;;;;3.46;95.57;99480.53;5011923;28;20033;-87
2022/12/16 03:10:49;;;;;;;148.63;66.53;;;;;;;3.40;95.24;99478.09;5011763;28;20026;-85
2022/12/16 03:13:19;;;;;;;152.63;54.30;;;;;;;3.45;95.66;99476.09;5010503;28;20488;-85
2022/12/16 03:15:47;;;;;;;107.35;53.97;;;;;;;3.51;95.78;99469.44;5010377;28;20546;-85
2022/12/16 03:18:14;;;;;;;130.88;50.92;;;;;;;3.42;95.07;99445.44;5010142;28;20030;-85
2022/12/16 03:20:49;;;;;;;107.47;49.83;;;;;;;3.39;95.59;99477.28;5009725;28;20597;-86
2022/12/16 03:23:20;;;;;;;131.98;48.83;;;;;;;3.43;95.83;99481.09;5010148;28;20540;-85
2022/12/16 03:25:49;;;;;;;99.55;48.55;;;;;;;3.53;95.27;99487.69;5010266;28;20040;-86
2022/12/16 03:28:38;;;;;;;118.03;54.05;;;;;;;3.50;95.63;99470.56;5011403;28;20021;-87
2022/12/16 03:31:30;;;;;;;123.75;58.97;;;;;;;3.34;95.33;99480.88;5010142;28;20026;-86
2022/12/16 03:34:03;;;;;;;165.38;56.60;;;;;;;2.43;99.35;99475.50;5023679;28;20540;-86
2022/12/16 03:36:33;;;;;;;120.70;52.85;;;;;;;2.50;100.00;99492.59;5026034;28;20041;-86
2022/12/16 03:39:00;;;;;;;;;;;;;;;2.85;100.00;99490.00;5027321;28;20029;-86
2022/12/16 03:41:28;;;;;;;126.72;53.10;;;;;;;2.98;100.00;99488.53;5010328;28;19913;-86
2022/12/16 03:43:53;;;;;;;131.18;58.65;;;;;;;3.09;99.92;99484.63;5010222;28;20034;-86
2022/12/16 03:46:19;;;;;;;138.25;63.92;;;;;;;3.08;98.84;99500.41;5010247;28;20061;-87
2022/12/16 03:48:49;;;;;;;166.73;66.15;;;;;;;2.85;99.19;99506.59;5026716;28;20053;-86
2022/12/16 03:51:15;;;;;;;;;;;;;;;2.76;100.00;99503.56;5012005;28;20026;-86
2022/12/16 03:53:41;;;;;;;100.72;54.08;;;;;;;2.77;100.00;99480.34;5026802;28;19919;-86
2022/12/16 03:56:07;;;;;;;120.35;60.40;;;;;;;2.95;100.00;99476.97;5009801;28;20033;-85
2022/12/16 03:58:34;;;;;;;142.57;67.45;;;;;;;3.14;100.00;99476.31;5009470;28;20080;-86
2022/12/16 04:01:00;;;;;;;151.57;69.25;;;;;;;3.21;99.90;99482.34;5012893;28;20022;-87
2022/12/16 04:03:25;;;;;;;145.60;68.68;;;;;;;2.91;100.00;99475.88;5013872;28;20068;-86
2022/12/16 04:05:51;;;;;;;136.63;62.75;;;;;;;2.46;100.00;99478.50;5014136;28;20084;-85
2022/12/16 04:08:16;;;;;;;107.93;54.58;;;;;;;2.67;100.00;99487.59;5014074;28;20026;-86
2022/12/16 04:24:30;;;;;;;95.15;51.50;;;;;;;2.37;100.00;99492.06;5015275;28;20032;-87
2022/12/16 04:32:25;;;;;;;93.07;49.13;;;;;;;2.97;100.00;99504.31;5014928;28;20041;-86
2022/12/16 04:34:51;;;;;;;90.25;49.75;;;;;;;3.09;100.00;99515.88;5013480;28;20092;-86
